<?xml version="1.0" encoding="UTF-8" standalone="yes"?>
<gpx version="1.1" creator="MagicMaps Tour Explorer"
     xmlns:xsi="http://www.w3.org/2001/XMLSchema-instance"
     xmlns="http://www.topografix.com/GPX/1/1">
  <trk>
    <name>klamml_ks</name>
    <trkseg>
      <trkpt lat="47.541834097" lon="12.319006640">
        <ele>1111.8</ele>
        <time>2015-06-26T06:38:26</time>
      </trkpt>
      <trkpt lat="47.542051440" lon="12.318874374">
        <ele>1111.2</ele>
        <time>2015-06-26T06:38:52</time>
      </trkpt>
      <trkpt lat="47.542101899" lon="12.318823077">
        <ele>1111.0</ele>
        <time>2015-06-26T06:38:58</time>
      </trkpt>
      <trkpt lat="47.542591402" lon="12.318677986">
        <ele>1117.3</ele>
        <time>2015-06-26T06:42:13</time>
      </trkpt>
      <trkpt lat="47.542898180" lon="12.318650661">
        <ele>1122.3</ele>
        <time>2015-06-26T06:42:54</time>
      </trkpt>
      <trkpt lat="47.543156678" lon="12.318548234">
        <ele>1128.5</ele>
        <time>2015-06-26T06:43:31</time>
      </trkpt>
      <trkpt lat="47.543388270" lon="12.318556700">
        <ele>1134.2</ele>
        <time>2015-06-26T06:44:07</time>
      </trkpt>
      <trkpt lat="47.543818597" lon="12.318441449">
        <ele>1143.2</ele>
        <time>2015-06-26T06:44:58</time>
      </trkpt>
      <trkpt lat="47.544370210" lon="12.318469277">
        <ele>1155.4</ele>
        <time>2015-06-26T06:46:10</time>
      </trkpt>
      <trkpt lat="47.544587469" lon="12.318535075">
        <ele>1156.9</ele>
        <time>2015-06-26T06:46:28</time>
      </trkpt>
      <trkpt lat="47.545103375" lon="12.318769433">
        <ele>1160.6</ele>
        <time>2015-06-26T06:47:13</time>
      </trkpt>
      <trkpt lat="47.545312839" lon="12.318811342">
        <ele>1161.9</ele>
        <time>2015-06-26T06:47:35</time>
      </trkpt>
      <trkpt lat="47.545566978" lon="12.318918128">
        <ele>1163.8</ele>
        <time>2015-06-26T06:47:57</time>
      </trkpt>
      <trkpt lat="47.546015913" lon="12.319162125">
        <ele>1165.8</ele>
        <time>2015-06-26T06:48:39</time>
      </trkpt>
      <trkpt lat="47.546388069" lon="12.319441158">
        <ele>1172.7</ele>
        <time>2015-06-26T06:49:22</time>
      </trkpt>
      <trkpt lat="47.546465518" lon="12.319525229">
        <ele>1174.0</ele>
        <time>2015-06-26T06:49:31</time>
      </trkpt>
      <trkpt lat="47.546596024" lon="12.319549536">
        <ele>1176.6</ele>
        <time>2015-06-26T06:49:47</time>
      </trkpt>
      <trkpt lat="47.546921158" lon="12.319682389">
        <ele>1182.8</ele>
        <time>2015-06-26T06:50:27</time>
      </trkpt>
      <trkpt lat="47.547036242" lon="12.319778865">
        <ele>1185.4</ele>
        <time>2015-06-26T06:50:42</time>
      </trkpt>
      <trkpt lat="47.547100615" lon="12.319868635">
        <ele>1187.0</ele>
        <time>2015-06-26T06:50:51</time>
      </trkpt>
      <trkpt lat="47.547211843" lon="12.320157895">
        <ele>1190.2</ele>
        <time>2015-06-26T06:51:14</time>
      </trkpt>
      <trkpt lat="47.547261380" lon="12.320334166">
        <ele>1193.1</ele>
        <time>2015-06-26T06:51:31</time>
      </trkpt>
      <trkpt lat="47.547322568" lon="12.320446568">
        <ele>1195.2</ele>
        <time>2015-06-26T06:51:42</time>
      </trkpt>
      <trkpt lat="47.547711069" lon="12.320726020">
        <ele>1202.0</ele>
        <time>2015-06-26T06:52:27</time>
      </trkpt>
      <trkpt lat="47.547879042" lon="12.320740269">
        <ele>1204.3</ele>
        <time>2015-06-26T06:52:42</time>
      </trkpt>
      <trkpt lat="47.548334012" lon="12.321353322">
        <ele>1217.3</ele>
        <time>2015-06-26T06:54:03</time>
      </trkpt>
      <trkpt lat="47.548559904" lon="12.321453067">
        <ele>1222.0</ele>
        <time>2015-06-26T06:54:29</time>
      </trkpt>
      <trkpt lat="47.548651015" lon="12.321586255">
        <ele>1224.6</ele>
        <time>2015-06-26T06:54:44</time>
      </trkpt>
      <trkpt lat="47.548677418" lon="12.321725395">
        <ele>1226.0</ele>
        <time>2015-06-26T06:54:55</time>
      </trkpt>
      <trkpt lat="47.548666270" lon="12.321962854">
        <ele>1229.3</ele>
        <time>2015-06-26T06:55:12</time>
      </trkpt>
      <trkpt lat="47.548684878" lon="12.322165193">
        <ele>1231.7</ele>
        <time>2015-06-26T06:55:27</time>
      </trkpt>
      <trkpt lat="47.548717400" lon="12.322323192">
        <ele>1234.1</ele>
        <time>2015-06-26T06:55:41</time>
      </trkpt>
      <trkpt lat="47.548827538" lon="12.322427547">
        <ele>1237.3</ele>
        <time>2015-06-26T06:55:58</time>
      </trkpt>
      <trkpt lat="47.548855115" lon="12.322532907">
        <ele>1238.4</ele>
        <time>2015-06-26T06:56:05</time>
      </trkpt>
      <trkpt lat="47.548774229" lon="12.322693672">
        <ele>1240.2</ele>
        <time>2015-06-26T06:56:21</time>
      </trkpt>
      <trkpt lat="47.548790239" lon="12.322823424">
        <ele>1243.2</ele>
        <time>2015-06-26T06:56:36</time>
      </trkpt>
      <trkpt lat="47.548899790" lon="12.322912943">
        <ele>1246.3</ele>
        <time>2015-06-26T06:56:55</time>
      </trkpt>
      <trkpt lat="47.549252585" lon="12.323058955">
        <ele>1254.2</ele>
        <time>2015-06-26T06:57:42</time>
      </trkpt>
      <trkpt lat="47.549367333" lon="12.323144116">
        <ele>1257.3</ele>
        <time>2015-06-26T06:57:59</time>
      </trkpt>
      <trkpt lat="47.549509406" lon="12.323203040">
        <ele>1260.6</ele>
        <time>2015-06-26T06:58:18</time>
      </trkpt>
      <trkpt lat="47.549591968" lon="12.323269341">
        <ele>1262.8</ele>
        <time>2015-06-26T06:58:29</time>
      </trkpt>
      <trkpt lat="47.549617616" lon="12.323551141">
        <ele>1266.8</ele>
        <time>2015-06-26T06:58:55</time>
      </trkpt>
      <trkpt lat="47.549678553" lon="12.323837634">
        <ele>1270.7</ele>
        <time>2015-06-26T06:59:18</time>
      </trkpt>
      <trkpt lat="47.549677044" lon="12.324049864">
        <ele>1272.8</ele>
        <time>2015-06-26T06:59:33</time>
      </trkpt>
      <trkpt lat="47.549585011" lon="12.324168384">
        <ele>1274.7</ele>
        <time>2015-06-26T06:59:47</time>
      </trkpt>
      <trkpt lat="47.549489457" lon="12.324248264">
        <ele>1276.5</ele>
        <time>2015-06-26T06:59:59</time>
      </trkpt>
      <trkpt lat="47.549550226" lon="12.324371645">
        <ele>1278.7</ele>
        <time>2015-06-26T07:00:13</time>
      </trkpt>
      <trkpt lat="47.549541593" lon="12.324401988">
        <ele>1280.2</ele>
        <time>2015-06-26T07:00:25</time>
      </trkpt>
      <trkpt lat="47.549583921" lon="12.324405843">
        <ele>1280.3</ele>
        <time>2015-06-26T07:00:35</time>
      </trkpt>
      <trkpt lat="47.549657430" lon="12.324394947">
        <ele>1280.2</ele>
        <time>2015-06-26T07:00:41</time>
      </trkpt>
      <trkpt lat="47.550020367" lon="12.324045924">
        <ele>1282.0</ele>
        <time>2015-06-26T07:01:21</time>
      </trkpt>
      <trkpt lat="47.550302418" lon="12.323821960">
        <ele>1286.8</ele>
        <time>2015-06-26T07:01:53</time>
      </trkpt>
      <trkpt lat="47.550398726" lon="12.323782900">
        <ele>1289.3</ele>
        <time>2015-06-26T07:02:09</time>
      </trkpt>
      <trkpt lat="47.550496794" lon="12.323793126">
        <ele>1292.0</ele>
        <time>2015-06-26T07:02:23</time>
      </trkpt>
      <trkpt lat="47.550698798" lon="12.323771250">
        <ele>1296.2</ele>
        <time>2015-06-26T07:02:51</time>
      </trkpt>
      <trkpt lat="47.550773062" lon="12.323680976">
        <ele>1299.2</ele>
        <time>2015-06-26T07:03:08</time>
      </trkpt>
      <trkpt lat="47.551074391" lon="12.323466567">
        <ele>1307.2</ele>
        <time>2015-06-26T07:03:58</time>
      </trkpt>
      <trkpt lat="47.551170867" lon="12.323450474">
        <ele>1310.3</ele>
        <time>2015-06-26T07:04:14</time>
      </trkpt>
      <trkpt lat="47.551333476" lon="12.323331870">
        <ele>1315.4</ele>
        <time>2015-06-26T07:05:00</time>
      </trkpt>
      <trkpt lat="47.551510334" lon="12.323331200">
        <ele>1318.2</ele>
        <time>2015-06-26T07:05:38</time>
      </trkpt>
      <trkpt lat="47.551558111" lon="12.323410241">
        <ele>1320.5</ele>
        <time>2015-06-26T07:05:50</time>
      </trkpt>
      <trkpt lat="47.551900260" lon="12.323459946">
        <ele>1329.9</ele>
        <time>2015-06-26T07:06:42</time>
      </trkpt>
      <trkpt lat="47.552151214" lon="12.323353747">
        <ele>1335.5</ele>
        <time>2015-06-26T07:07:18</time>
      </trkpt>
      <trkpt lat="47.552280128" lon="12.323261546">
        <ele>1337.9</ele>
        <time>2015-06-26T07:07:38</time>
      </trkpt>
      <trkpt lat="47.552513313" lon="12.322892575">
        <ele>1341.1</ele>
        <time>2015-06-26T07:08:15</time>
      </trkpt>
      <trkpt lat="47.552598221" lon="12.322692079">
        <ele>1343.8</ele>
        <time>2015-06-26T07:08:36</time>
      </trkpt>
      <trkpt lat="47.552801985" lon="12.322355295">
        <ele>1347.5</ele>
        <time>2015-06-26T07:09:24</time>
      </trkpt>
      <trkpt lat="47.552853869" lon="12.322199140">
        <ele>1347.7</ele>
        <time>2015-06-26T07:09:33</time>
      </trkpt>
      <trkpt lat="47.552862586" lon="12.322113309">
        <ele>1347.9</ele>
        <time>2015-06-26T07:09:46</time>
      </trkpt>
      <trkpt lat="47.552902652" lon="12.321974086">
        <ele>1347.4</ele>
        <time>2015-06-26T07:10:08</time>
      </trkpt>
      <trkpt lat="47.552988231" lon="12.321799323">
        <ele>1347.7</ele>
        <time>2015-06-26T07:10:25</time>
      </trkpt>
      <trkpt lat="47.552982029" lon="12.321671750">
        <ele>1347.6</ele>
        <time>2015-06-26T07:10:41</time>
      </trkpt>
      <trkpt lat="47.553000804" lon="12.321601510">
        <ele>1347.3</ele>
        <time>2015-06-26T07:10:47</time>
      </trkpt>
      <trkpt lat="47.553053526" lon="12.321467819">
        <ele>1346.8</ele>
        <time>2015-06-26T07:11:05</time>
      </trkpt>
      <trkpt lat="47.553138351" lon="12.321345862">
        <ele>1347.6</ele>
        <time>2015-06-26T07:11:23</time>
      </trkpt>
      <trkpt lat="47.553291488" lon="12.320743538">
        <ele>1349.3</ele>
        <time>2015-06-26T07:12:11</time>
      </trkpt>
      <trkpt lat="47.553426772" lon="12.320533069">
        <ele>1352.3</ele>
        <time>2015-06-26T07:12:33</time>
      </trkpt>
      <trkpt lat="47.553427862" lon="12.320455788">
        <ele>1353.8</ele>
        <time>2015-06-26T07:12:40</time>
      </trkpt>
      <trkpt lat="47.553527607" lon="12.320390325">
        <ele>1356.5</ele>
        <time>2015-06-26T07:12:56</time>
      </trkpt>
      <trkpt lat="47.553611929" lon="12.320291167">
        <ele>1358.9</ele>
        <time>2015-06-26T07:13:12</time>
      </trkpt>
      <trkpt lat="47.553653084" lon="12.320130654">
        <ele>1362.2</ele>
        <time>2015-06-26T07:13:30</time>
      </trkpt>
      <trkpt lat="47.553720558" lon="12.320006769">
        <ele>1363.7</ele>
        <time>2015-06-26T07:13:50</time>
      </trkpt>
      <trkpt lat="47.553732544" lon="12.319787163">
        <ele>1366.7</ele>
        <time>2015-06-26T07:14:06</time>
      </trkpt>
      <trkpt lat="47.553718127" lon="12.319573844">
        <ele>1367.6</ele>
        <time>2015-06-26T07:14:21</time>
      </trkpt>
      <trkpt lat="47.553649312" lon="12.319336049">
        <ele>1369.4</ele>
        <time>2015-06-26T07:14:48</time>
      </trkpt>
      <trkpt lat="47.553730700" lon="12.319088532">
        <ele>1374.1</ele>
        <time>2015-06-26T07:15:20</time>
      </trkpt>
      <trkpt lat="47.553762048" lon="12.318910165">
        <ele>1376.7</ele>
        <time>2015-06-26T07:15:38</time>
      </trkpt>
      <trkpt lat="47.553757187" lon="12.318692403">
        <ele>1381.5</ele>
        <time>2015-06-26T07:16:07</time>
      </trkpt>
      <trkpt lat="47.553777555" lon="12.318622833">
        <ele>1384.8</ele>
        <time>2015-06-26T07:16:27</time>
      </trkpt>
      <trkpt lat="47.553824075" lon="12.318483023">
        <ele>1387.7</ele>
        <time>2015-06-26T07:16:46</time>
      </trkpt>
      <trkpt lat="47.553849304" lon="12.318334328">
        <ele>1390.1</ele>
        <time>2015-06-26T07:17:02</time>
      </trkpt>
      <trkpt lat="47.553857854" lon="12.318131402">
        <ele>1395.3</ele>
        <time>2015-06-26T07:17:34</time>
      </trkpt>
      <trkpt lat="47.553828433" lon="12.318027886">
        <ele>1398.0</ele>
        <time>2015-06-26T07:17:51</time>
      </trkpt>
      <trkpt lat="47.553872941" lon="12.317524720">
        <ele>1409.4</ele>
        <time>2015-06-26T07:18:53</time>
      </trkpt>
      <trkpt lat="47.553858692" lon="12.317430591">
        <ele>1411.5</ele>
        <time>2015-06-26T07:19:07</time>
      </trkpt>
      <trkpt lat="47.553881994" lon="12.317369655">
        <ele>1413.0</ele>
        <time>2015-06-26T07:19:21</time>
      </trkpt>
      <trkpt lat="47.553855674" lon="12.317300169">
        <ele>1415.2</ele>
        <time>2015-06-26T07:19:41</time>
      </trkpt>
      <trkpt lat="47.553868750" lon="12.317252392">
        <ele>1416.0</ele>
        <time>2015-06-26T07:20:31</time>
      </trkpt>
      <trkpt lat="47.553847963" lon="12.317049298">
        <ele>1419.9</ele>
        <time>2015-06-26T07:21:07</time>
      </trkpt>
      <trkpt lat="47.553888112" lon="12.316982662">
        <ele>1421.8</ele>
        <time>2015-06-26T07:21:18</time>
      </trkpt>
      <trkpt lat="47.553885849" lon="12.316885265">
        <ele>1424.5</ele>
        <time>2015-06-26T07:21:34</time>
      </trkpt>
      <trkpt lat="47.553833378" lon="12.316766577">
        <ele>1426.8</ele>
        <time>2015-06-26T07:21:51</time>
      </trkpt>
      <trkpt lat="47.553857518" lon="12.316682758">
        <ele>1429.8</ele>
        <time>2015-06-26T07:22:09</time>
      </trkpt>
      <trkpt lat="47.553854417" lon="12.316569686">
        <ele>1432.9</ele>
        <time>2015-06-26T07:22:25</time>
      </trkpt>
      <trkpt lat="47.553818291" lon="12.316466756">
        <ele>1435.1</ele>
        <time>2015-06-26T07:22:40</time>
      </trkpt>
      <trkpt lat="47.553791050" lon="12.316119745">
        <ele>1444.6</ele>
        <time>2015-06-26T07:23:36</time>
      </trkpt>
      <trkpt lat="47.553811921" lon="12.315836353">
        <ele>1451.0</ele>
        <time>2015-06-26T07:24:16</time>
      </trkpt>
      <trkpt lat="47.553874031" lon="12.315703081">
        <ele>1455.3</ele>
        <time>2015-06-26T07:24:44</time>
      </trkpt>
      <trkpt lat="47.553843688" lon="12.315458832">
        <ele>1458.5</ele>
        <time>2015-06-26T07:25:24</time>
      </trkpt>
      <trkpt lat="47.553858524" lon="12.315389598">
        <ele>1467.6</ele>
        <time>2015-06-26T07:26:36</time>
      </trkpt>
      <trkpt lat="47.553848466" lon="12.315282309">
        <ele>1472.9</ele>
        <time>2015-06-26T07:27:08</time>
      </trkpt>
      <trkpt lat="47.553337757" lon="12.315058010">
        <ele>1479.2</ele>
        <time>2015-06-26T07:32:28</time>
      </trkpt>
      <trkpt lat="47.553271456" lon="12.314934293">
        <ele>1603.9</ele>
        <time>2015-06-26T08:28:25</time>
      </trkpt>
      <trkpt lat="47.553183446" lon="12.314821891">
        <ele>1603.9</ele>
        <time>2015-06-26T08:29:12</time>
      </trkpt>
      <trkpt lat="47.553070206" lon="12.314764392">
        <ele>1604.6</ele>
        <time>2015-06-26T08:29:22</time>
      </trkpt>
      <trkpt lat="47.553004324" lon="12.314779479">
        <ele>1607.5</ele>
        <time>2015-06-26T08:29:53</time>
      </trkpt>
      <trkpt lat="47.553002648" lon="12.314729607">
        <ele>1607.8</ele>
        <time>2015-06-26T08:30:17</time>
      </trkpt>
      <trkpt lat="47.552974820" lon="12.314701360">
        <ele>1609.6</ele>
        <time>2015-06-26T08:31:22</time>
      </trkpt>
      <trkpt lat="47.553032823" lon="12.314503379">
        <ele>1613.5</ele>
        <time>2015-06-26T08:32:01</time>
      </trkpt>
      <trkpt lat="47.553031230" lon="12.314434983">
        <ele>1616.4</ele>
        <time>2015-06-26T08:32:23</time>
      </trkpt>
      <trkpt lat="47.553012036" lon="12.314412603">
        <ele>1618.5</ele>
        <time>2015-06-26T08:32:41</time>
      </trkpt>
      <trkpt lat="47.553116055" lon="12.314255694">
        <ele>1621.0</ele>
        <time>2015-06-26T08:33:23</time>
      </trkpt>
      <trkpt lat="47.553209681" lon="12.314194590">
        <ele>1623.6</ele>
        <time>2015-06-26T08:33:39</time>
      </trkpt>
      <trkpt lat="47.553268187" lon="12.313830731">
        <ele>1627.7</ele>
        <time>2015-06-26T08:34:26</time>
      </trkpt>
      <trkpt lat="47.553421240" lon="12.313758228">
        <ele>1628.2</ele>
        <time>2015-06-26T08:34:47</time>
      </trkpt>
      <trkpt lat="47.553452756" lon="12.313654963">
        <ele>1627.7</ele>
        <time>2015-06-26T08:34:54</time>
      </trkpt>
      <trkpt lat="47.553493995" lon="12.313407110">
        <ele>1627.6</ele>
        <time>2015-06-26T08:35:08</time>
      </trkpt>
      <trkpt lat="47.553585442" lon="12.313233186">
        <ele>1628.8</ele>
        <time>2015-06-26T08:35:29</time>
      </trkpt>
      <trkpt lat="47.553586783" lon="12.313162694">
        <ele>1629.4</ele>
        <time>2015-06-26T08:35:33</time>
      </trkpt>
      <trkpt lat="47.553675463" lon="12.312829094">
        <ele>1631.0</ele>
        <time>2015-06-26T08:35:53</time>
      </trkpt>
      <trkpt lat="47.553687869" lon="12.312602615">
        <ele>1632.5</ele>
        <time>2015-06-26T08:36:06</time>
      </trkpt>
      <trkpt lat="47.553738412" lon="12.312494069">
        <ele>1635.3</ele>
        <time>2015-06-26T08:36:27</time>
      </trkpt>
      <trkpt lat="47.553779148" lon="12.312380578">
        <ele>1637.7</ele>
        <time>2015-06-26T08:36:42</time>
      </trkpt>
      <trkpt lat="47.553790882" lon="12.312243786">
        <ele>1638.8</ele>
        <time>2015-06-26T08:36:55</time>
      </trkpt>
      <trkpt lat="47.553818375" lon="12.312190142">
        <ele>1638.9</ele>
        <time>2015-06-26T08:36:59</time>
      </trkpt>
      <trkpt lat="47.553849807" lon="12.312037759">
        <ele>1639.5</ele>
        <time>2015-06-26T08:37:07</time>
      </trkpt>
      <trkpt lat="47.553862548" lon="12.311889818">
        <ele>1641.4</ele>
        <time>2015-06-26T08:37:22</time>
      </trkpt>
      <trkpt lat="47.553844107" lon="12.311766604">
        <ele>1642.7</ele>
        <time>2015-06-26T08:37:41</time>
      </trkpt>
      <trkpt lat="47.553880652" lon="12.311603911">
        <ele>1644.3</ele>
        <time>2015-06-26T08:37:55</time>
      </trkpt>
      <trkpt lat="47.553846873" lon="12.311489582">
        <ele>1645.0</ele>
        <time>2015-06-26T08:38:02</time>
      </trkpt>
      <trkpt lat="47.553679906" lon="12.311379025">
        <ele>1644.0</ele>
        <time>2015-06-26T08:38:30</time>
      </trkpt>
      <trkpt lat="47.553622657" lon="12.311260505">
        <ele>1643.5</ele>
        <time>2015-06-26T08:38:37</time>
      </trkpt>
      <trkpt lat="47.553554010" lon="12.311180625">
        <ele>1642.9</ele>
        <time>2015-06-26T08:38:44</time>
      </trkpt>
      <trkpt lat="47.553420151" lon="12.311178194">
        <ele>1642.2</ele>
        <time>2015-06-26T08:42:27</time>
      </trkpt>
      <trkpt lat="47.553592902" lon="12.311211303">
        <ele>1642.2</ele>
        <time>2015-06-26T08:43:12</time>
      </trkpt>
      <trkpt lat="47.553684516" lon="12.311370810">
        <ele>1642.0</ele>
        <time>2015-06-26T08:43:19</time>
      </trkpt>
      <trkpt lat="47.553881491" lon="12.311603576">
        <ele>1642.0</ele>
        <time>2015-06-26T08:43:21</time>
      </trkpt>
      <trkpt lat="47.553852573" lon="12.312006075">
        <ele>1641.8</ele>
        <time>2015-06-26T08:43:35</time>
      </trkpt>
      <trkpt lat="47.553698011" lon="12.312578727">
        <ele>1626.0</ele>
        <time>2015-06-26T08:43:48</time>
      </trkpt>
      <trkpt lat="47.553635146" lon="12.313020620">
        <ele>1626.3</ele>
        <time>2015-06-26T08:44:18</time>
      </trkpt>
      <trkpt lat="47.553426605" lon="12.313729310">
        <ele>1211.8</ele>
        <time>2015-06-26T09:37:16</time>
      </trkpt>
      <trkpt lat="47.553184032" lon="12.313703159">
        <ele>1211.7</ele>
        <time>2015-06-26T09:37:18</time>
      </trkpt>
      <trkpt lat="47.553255865" lon="12.313376265">
        <ele>1211.6</ele>
        <time>2015-06-26T09:37:22</time>
      </trkpt>
      <trkpt lat="47.553112283" lon="12.313167136">
        <ele>1211.5</ele>
        <time>2015-06-26T09:37:25</time>
      </trkpt>
      <trkpt lat="47.552788910" lon="12.313846992">
        <ele>1210.8</ele>
        <time>2015-06-26T09:37:31</time>
      </trkpt>
      <trkpt lat="47.551944433" lon="12.314304560">
        <ele>1210.2</ele>
        <time>2015-06-26T09:37:34</time>
      </trkpt>
      <trkpt lat="47.552267890" lon="12.313507022">
        <ele>1207.3</ele>
        <time>2015-06-26T09:37:49</time>
      </trkpt>
      <trkpt lat="47.552591264" lon="12.312944848">
        <ele>1206.8</ele>
        <time>2015-06-26T09:37:52</time>
      </trkpt>
      <trkpt lat="47.552159932" lon="12.312069107">
        <ele>1203.5</ele>
        <time>2015-06-26T09:38:06</time>
      </trkpt>
      <trkpt lat="47.551495163" lon="12.311075432">
        <ele>1201.4</ele>
        <time>2015-06-26T09:38:15</time>
      </trkpt>
      <trkpt lat="47.551189726" lon="12.311598463">
        <ele>1198.4</ele>
        <time>2015-06-26T09:38:29</time>
      </trkpt>
      <trkpt lat="47.551387371" lon="12.312252168">
        <ele>1195.8</ele>
        <time>2015-06-26T09:38:42</time>
      </trkpt>
      <trkpt lat="47.550839698" lon="12.313271994">
        <ele>1192.1</ele>
        <time>2015-06-26T09:38:57</time>
      </trkpt>
      <trkpt lat="47.550112065" lon="12.313729562">
        <ele>1189.5</ele>
        <time>2015-06-26T09:39:09</time>
      </trkpt>
      <trkpt lat="47.550085159" lon="12.312082266">
        <ele>1187.5</ele>
        <time>2015-06-26T09:39:19</time>
      </trkpt>
      <trkpt lat="47.549860608" lon="12.311494024">
        <ele>1350.8</ele>
      </trkpt>
      <trkpt lat="47.549869576" lon="12.310552737">
        <ele>1186.5</ele>
        <time>2015-06-26T09:39:24</time>
      </trkpt>
      <trkpt lat="47.548827538" lon="12.311755540">
        <ele>1184.4</ele>
        <time>2015-06-26T09:39:33</time>
      </trkpt>
      <trkpt lat="47.548611956" lon="12.311088759">
        <ele>1182.5</ele>
        <time>2015-06-26T09:39:42</time>
      </trkpt>
      <trkpt lat="47.548126811" lon="12.311350275">
        <ele>1181.3</ele>
        <time>2015-06-26T09:39:47</time>
      </trkpt>
      <trkpt lat="47.547237491" lon="12.312370017">
        <ele>1178.7</ele>
        <time>2015-06-26T09:39:59</time>
      </trkpt>
      <trkpt lat="47.546994919" lon="12.313638199">
        <ele>1177.3</ele>
        <time>2015-06-26T09:40:07</time>
      </trkpt>
      <trkpt lat="47.547201533" lon="12.315154821">
        <ele>1174.1</ele>
        <time>2015-06-26T09:40:28</time>
      </trkpt>
      <trkpt lat="47.547102794" lon="12.315442488">
        <ele>1171.3</ele>
        <time>2015-06-26T09:40:40</time>
      </trkpt>
      <trkpt lat="47.546330234" lon="12.315782541">
        <ele>1170.7</ele>
        <time>2015-06-26T09:40:43</time>
      </trkpt>
      <trkpt lat="47.545368997" lon="12.316750064">
        <ele>1165.8</ele>
        <time>2015-06-26T09:41:05</time>
      </trkpt>
      <trkpt lat="47.543482566" lon="12.317286087">
        <ele>1163.2</ele>
        <time>2015-06-26T09:41:18</time>
      </trkpt>
      <trkpt lat="47.542673377" lon="12.317115599">
        <ele>1157.4</ele>
        <time>2015-06-26T09:41:53</time>
      </trkpt>
      <trkpt lat="47.542544128" lon="12.316929270">
        <ele>1154.3</ele>
        <time>2015-06-26T09:42:09</time>
      </trkpt>
      <trkpt lat="47.542466847" lon="12.316893311">
        <ele>1153.2</ele>
        <time>2015-06-26T09:42:15</time>
      </trkpt>
      <trkpt lat="47.542350926" lon="12.316915020">
        <ele>1151.6</ele>
        <time>2015-06-26T09:42:24</time>
      </trkpt>
      <trkpt lat="47.542206086" lon="12.317026500">
        <ele>1148.3</ele>
        <time>2015-06-26T09:42:40</time>
      </trkpt>
      <trkpt lat="47.542059235" lon="12.317178883">
        <ele>1145.1</ele>
        <time>2015-06-26T09:42:55</time>
      </trkpt>
      <trkpt lat="47.541887574" lon="12.317484738">
        <ele>1138.7</ele>
        <time>2015-06-26T09:43:20</time>
      </trkpt>
      <trkpt lat="47.541816831" lon="12.317569144">
        <ele>1135.6</ele>
        <time>2015-06-26T09:43:31</time>
      </trkpt>
      <trkpt lat="47.541683642" lon="12.317805346">
        <ele>1129.4</ele>
        <time>2015-06-26T09:43:57</time>
      </trkpt>
      <trkpt lat="47.541501084" lon="12.318074070">
        <ele>1122.1</ele>
        <time>2015-06-26T09:44:24</time>
      </trkpt>
      <trkpt lat="47.541461270" lon="12.318217987">
        <ele>1119.5</ele>
        <time>2015-06-26T09:44:35</time>
      </trkpt>
      <trkpt lat="47.541399160" lon="12.318304656">
        <ele>1118.4</ele>
        <time>2015-06-26T09:44:42</time>
      </trkpt>
      <trkpt lat="47.541368231" lon="12.318498027">
        <ele>1116.8</ele>
        <time>2015-06-26T09:44:52</time>
      </trkpt>
      <trkpt lat="47.541256584" lon="12.318945704">
        <ele>1110.1</ele>
        <time>2015-06-26T09:45:21</time>
      </trkpt>
      <trkpt lat="47.541182321" lon="12.319004796">
        <ele>1107.6</ele>
        <time>2015-06-26T09:45:34</time>
      </trkpt>
      <trkpt lat="47.541124905" lon="12.319105547">
        <ele>1106.5</ele>
        <time>2015-06-26T09:45:40</time>
      </trkpt>
      <trkpt lat="47.541113673" lon="12.319151396">
        <ele>1106.1</ele>
        <time>2015-06-26T09:45:42</time>
      </trkpt>
      <trkpt lat="47.541181482" lon="12.319242926">
        <ele>1105.1</ele>
        <time>2015-06-26T09:45:50</time>
      </trkpt>
      <trkpt lat="47.541298410" lon="12.319245944">
        <ele>1104.1</ele>
        <time>2015-06-26T09:45:58</time>
      </trkpt>
      <trkpt lat="47.541379547" lon="12.319279555">
        <ele>1103.0</ele>
        <time>2015-06-26T09:46:05</time>
      </trkpt>
      <trkpt lat="47.541744160" lon="12.319180900">
        <ele>1101.4</ele>
        <time>2015-06-26T09:46:36</time>
      </trkpt>
      <trkpt lat="47.541827727" lon="12.319031786">
        <ele>1101.9</ele>
        <time>2015-06-26T09:46:45</time>
      </trkpt>
    </trkseg>
  </trk>
</gpx>
